Time;durP1;ratioP1;P1;durP2;ratioP2;P2;SDS_P1;SDS_P2;PMS_P1;PMS_P2;Temp;Humidity;BMP_temperature;BMP_pressure;BME280_temperature;BME280_humidity;BME280_pressure;Samples;Min_cycle;Max_cycle;Signal;HPM_P1;HPM_P2
2023/02/12 00:01:12;;;;;;;34.03;19.67;;;7.00;99.90;;;;;;5056986;28;20736;-65
2023/02/12 00:04:19;;;;;;;28.13;17.73;;;7.00;99.90;;;;;;5070609;28;20250;-65
2023/02/12 00:07:25;;;;;;;29.47;17.57;;;7.00;99.90;;;;;;5069078;28;20241;-65
2023/02/12 00:10:33;;;;;;;28.67;18.10;;;7.00;99.90;;;;;;5071101;28;20276;-65
2023/02/12 00:13:39;;;;;;;29.87;18.20;;;7.00;99.90;;;;;;5064771;28;20223;-65
2023/02/12 00:16:45;;;;;;;29.47;17.93;;;6.90;99.90;;;;;;5061519;28;20285;-65
2023/02/12 00:19:51;;;;;;;26.03;16.97;;;6.90;99.90;;;;;;5079438;28;20791;-65
2023/02/12 00:22:57;;;;;;;26.43;16.70;;;6.90;99.90;;;;;;5072583;28;20214;-65
2023/02/12 00:26:07;;;;;;;25.17;16.90;;;6.90;99.90;;;;;;5073786;28;20223;-65
2023/02/12 00:29:13;;;;;;;23.83;15.70;;;6.90;99.90;;;;;;5062781;28;20248;-65
2023/02/12 00:32:18;;;;;;;24.13;15.10;;;6.90;99.90;;;;;;5065415;28;20311;-65
2023/02/12 00:35:24;;;;;;;24.90;15.43;;;6.90;99.90;;;;;;5066174;28;20207;-65
2023/02/12 00:38:30;;;;;;;24.43;15.30;;;6.90;99.90;;;;;;5059953;28;20244;-65
2023/02/12 00:41:37;;;;;;;26.57;14.50;;;6.90;99.90;;;;;;5065894;28;20249;-65
2023/02/12 00:44:42;;;;;;;19.13;13.20;;;6.90;99.90;;;;;;5059219;28;20212;-65
2023/02/12 00:47:48;;;;;;;23.93;14.70;;;6.90;99.90;;;;;;5067112;28;21297;-65
2023/02/12 00:50:54;;;;;;;23.43;15.13;;;6.90;99.90;;;;;;5070159;28;20198;-65
2023/02/12 00:54:00;;;;;;;25.00;15.60;;;6.90;99.90;;;;;;5065056;28;20223;-65
2023/02/12 00:57:07;;;;;;;25.07;15.60;;;6.90;99.90;;;;;;5067549;28;20798;-65
2023/02/12 01:00:15;;;;;;;23.20;14.87;;;6.80;99.90;;;;;;5066204;28;20263;-65
2023/02/12 01:03:21;;;;;;;27.33;15.97;;;6.80;99.90;;;;;;5068403;28;20333;-65
2023/02/12 01:06:27;;;;;;;28.93;15.60;;;6.80;99.90;;;;;;5069769;28;20211;-65
2023/02/12 01:09:33;;;;;;;23.00;15.60;;;6.70;99.90;;;;;;5067248;28;20394;-65
2023/02/12 01:12:40;;;;;;;26.27;16.03;;;6.70;99.90;;;;;;5059969;28;20226;-65
2023/02/12 01:15:46;;;;;;;27.73;16.23;;;6.70;99.90;;;;;;5064529;28;20272;-65
2023/02/12 01:18:54;;;;;;;25.30;15.93;;;6.70;99.90;;;;;;5061352;28;20236;-65
2023/02/12 01:22:01;;;;;;;25.40;16.60;;;6.70;99.90;;;;;;5065995;28;20199;-65
2023/02/12 01:25:08;;;;;;;26.90;16.30;;;6.60;99.90;;;;;;5060959;28;20222;-65
2023/02/12 01:28:14;;;;;;;22.63;14.37;;;6.60;99.90;;;;;;5060770;28;20230;-65
2023/02/12 01:31:23;;;;;;;22.60;15.33;;;6.60;99.90;;;;;;5063742;28;20223;-65
2023/02/12 01:34:29;;;;;;;23.70;15.70;;;6.60;99.90;;;;;;5062762;28;20254;-65
2023/02/12 01:37:36;;;;;;;25.63;16.20;;;6.60;99.90;;;;;;5065598;28;20353;-65
2023/02/12 01:40:41;;;;;;;26.40;15.57;;;6.60;99.90;;;;;;5074852;28;20195;-65
2023/02/12 01:44:07;;;;;;;27.90;17.80;;;6.60;99.90;;;;;;5071436;28;20292;-65
2023/02/12 01:47:17;;;;;;;27.80;18.30;;;6.60;99.90;;;;;;5059266;28;20248;-65
2023/02/12 01:50:23;;;;;;;27.97;17.83;;;6.50;99.90;;;;;;5061460;28;20203;-65
2023/02/12 01:53:34;;;;;;;23.53;16.63;;;6.50;99.90;;;;;;5063736;28;20284;-65
2023/02/12 01:56:41;;;;;;;27.70;17.73;;;6.60;99.90;;;;;;5055088;28;20231;-65
2023/02/12 01:59:53;;;;;;;25.93;17.33;;;6.70;99.90;;;;;;5069495;28;20195;-65
2023/02/12 02:03:01;;;;;;;26.37;15.93;;;6.70;99.90;;;;;;5060246;28;20561;-65
2023/02/12 02:06:11;;;;;;;23.00;15.90;;;6.80;99.90;;;;;;5072282;28;20751;-65
2023/02/12 02:09:19;;;;;;;27.10;16.50;;;6.70;99.90;;;;;;5068782;28;20324;-65
2023/02/12 02:15:55;;;;;;;22.27;14.63;;;6.70;99.90;;;;;;5059904;28;20208;-65
2023/02/12 02:19:09;;;;;;;21.00;14.90;;;6.70;99.90;;;;;;5063161;28;20242;-65
2023/02/12 02:22:29;;;;;;;23.60;15.73;;;6.70;99.90;;;;;;5077583;28;20202;-65
2023/02/12 02:25:49;;;;;;;21.47;15.17;;;6.80;99.90;;;;;;5073292;28;20266;-65
2023/02/12 02:29:39;;;;;;;20.10;14.53;;;6.80;99.90;;;;;;5063829;28;20222;-65
2023/02/12 02:32:55;;;;;;;25.13;15.77;;;6.80;99.90;;;;;;5030687;28;20660;-64
2023/02/12 02:36:16;;;;;;;21.23;16.10;;;6.70;99.90;;;;;;5068158;28;20207;-65
2023/02/12 02:39:28;;;;;;;21.00;15.67;;;6.70;99.90;;;;;;5071285;28;20739;-65
2023/02/12 02:42:40;;;;;;;20.37;14.73;;;6.70;99.90;;;;;;5069296;28;20227;-65
2023/02/12 02:45:49;;;;;;;21.03;15.40;;;6.70;99.90;;;;;;5069981;28;20215;-65
2023/02/12 02:49:00;;;;;;;21.67;14.73;;;6.60;99.90;;;;;;5071801;28;20215;-65
2023/02/12 02:52:10;;;;;;;20.77;15.93;;;6.60;99.90;;;;;;5077497;28;20526;-65
2023/02/12 02:55:20;;;;;;;19.83;15.30;;;6.60;99.90;;;;;;5066005;28;20279;-65
2023/02/12 02:58:32;;;;;;;20.83;15.53;;;6.60;99.90;;;;;;5067947;28;20227;-65
2023/02/12 03:01:43;;;;;;;17.47;12.97;;;6.60;99.90;;;;;;5063520;28;20223;-65
2023/02/12 03:04:55;;;;;;;11.83;10.50;;;6.60;99.90;;;;;;5073460;28;20247;-65
2023/02/12 03:08:07;;;;;;;13.93;11.67;;;6.70;99.90;;;;;;5069215;28;20219;-64
2023/02/12 03:11:17;;;;;;;13.90;11.37;;;6.80;99.90;;;;;;5065480;28;20249;-65
2023/02/12 03:14:28;;;;;;;16.23;13.17;;;6.80;99.90;;;;;;5066438;28;20206;-65
2023/02/12 03:17:37;;;;;;;16.13;12.07;;;6.80;99.90;;;;;;5065927;28;20641;-65
2023/02/12 03:20:51;;;;;;;15.00;12.47;;;6.80;99.90;;;;;;5067379;28;20230;-65
2023/02/12 03:24:02;;;;;;;20.10;13.10;;;6.80;99.90;;;;;;5057093;28;20215;-65
2023/02/12 03:27:13;;;;;;;14.67;12.37;;;6.80;99.90;;;;;;5074678;28;20247;-65
2023/02/12 03:30:20;;;;;;;17.10;13.47;;;6.70;99.90;;;;;;5066760;28;20200;-65
2023/02/12 03:33:35;;;;;;;18.67;13.53;;;6.70;99.90;;;;;;5065950;28;20235;-65
2023/02/12 03:36:51;;;;;;;15.23;12.10;;;6.70;99.90;;;;;;5070012;28;20230;-65
2023/02/12 03:40:00;;;;;;;12.60;11.30;;;6.60;99.90;;;;;;5082192;28;20222;-65
2023/02/12 03:43:09;;;;;;;12.63;11.27;;;6.60;99.90;;;;;;5074599;28;20243;-65
2023/02/12 03:46:20;;;;;;;14.20;11.67;;;6.60;99.90;;;;;;5063356;28;20741;-65
2023/02/12 03:49:32;;;;;;;11.83;10.63;;;6.60;99.90;;;;;;5072253;28;20381;-65
2023/02/12 03:52:39;;;;;;;13.37;10.57;;;6.60;99.90;;;;;;5061063;28;20253;-65
2023/02/12 03:55:49;;;;;;;12.40;9.63;;;6.60;99.90;;;;;;5066143;28;20215;-65
2023/02/12 03:58:54;;;;;;;12.03;10.70;;;6.70;99.90;;;;;;5064052;28;20239;-65
2023/02/12 04:02:00;;;;;;;15.87;11.70;;;6.70;99.90;;;;;;5065093;28;20973;-65
2023/02/12 04:05:07;;;;;;;16.23;12.10;;;6.70;99.90;;;;;;5069371;28;20249;-65
2023/02/12 04:08:14;;;;;;;12.73;11.43;;;6.70;99.90;;;;;;5061527;28;20235;-64
2023/02/12 04:11:27;;;;;;;13.77;12.10;;;6.70;99.90;;;;;;5074727;28;20250;-65
2023/02/12 04:14:41;;;;;;;15.10;12.80;;;6.60;99.90;;;;;;5064264;28;20214;-65
2023/02/12 04:17:52;;;;;;;14.87;11.53;;;6.60;99.90;;;;;;5060026;28;20222;-65
2023/02/12 04:21:06;;;;;;;14.13;11.37;;;6.60;99.90;;;;;;5066432;28;20259;-65
2023/02/12 04:24:19;;;;;;;17.40;12.40;;;6.60;99.90;;;;;;5064408;28;20227;-65
2023/02/12 04:27:30;;;;;;;13.20;11.80;;;6.60;99.90;;;;;;5073208;28;20235;-65
2023/02/12 04:30:40;;;;;;;13.03;10.97;;;6.60;99.90;;;;;;5059384;28;20250;-65
2023/02/12 04:33:51;;;;;;;13.97;11.00;;;6.70;99.90;;;;;;5068941;28;20365;-65
2023/02/12 04:37:00;;;;;;;12.73;10.63;;;6.60;99.90;;;;;;5069721;28;20811;-65
2023/02/12 04:40:12;;;;;;;15.67;11.70;;;6.60;99.90;;;;;;5074971;28;20705;-65
2023/02/12 04:43:27;;;;;;;14.00;12.40;;;6.60;99.90;;;;;;5067121;28;20231;-65
2023/02/12 04:46:33;;;;;;;13.30;11.90;;;6.60;99.90;;;;;;5057848;28;20276;-65
2023/02/12 04:49:39;;;;;;;15.57;13.30;;;6.60;99.90;;;;;;5069615;28;20318;-65
2023/02/12 04:52:45;;;;;;;19.33;14.67;;;6.60;99.90;;;;;;5059023;28;20200;-65
2023/02/12 04:55:52;;;;;;;19.20;14.40;;;6.60;99.90;;;;;;5063480;28;20251;-65
2023/02/12 04:59:02;;;;;;;17.53;13.47;;;6.60;99.90;;;;;;5063275;28;20250;-65
2023/02/12 05:02:07;;;;;;;19.80;14.10;;;6.60;99.90;;;;;;5062011;28;20230;-65
2023/02/12 05:05:13;;;;;;;21.27;14.57;;;6.50;99.90;;;;;;5063356;28;20219;-65
2023/02/12 05:08:19;;;;;;;17.47;14.20;;;6.50;99.90;;;;;;5061292;28;20243;-65
2023/02/12 05:11:26;;;;;;;24.20;13.10;;;6.40;99.90;;;;;;5059642;28;20226;-65
2023/02/12 05:14:32;;;;;;;20.27;14.70;;;6.40;99.90;;;;;;5071670;28;20268;-65
2023/02/12 05:17:38;;;;;;;19.80;15.10;;;6.40;99.90;;;;;;5065290;28;20534;-65
2023/02/12 05:20:44;;;;;;;23.87;15.17;;;6.40;99.90;;;;;;5072167;28;20250;-65
2023/02/12 05:23:50;;;;;;;21.43;15.77;;;6.30;99.90;;;;;;5069987;28;20271;-65
2023/02/12 05:26:58;;;;;;;20.27;14.80;;;6.30;99.90;;;;;;5062614;28;20250;-64
2023/02/12 05:30:04;;;;;;;18.47;14.83;;;6.30;99.90;;;;;;5077066;28;20810;-66
2023/02/12 05:33:10;;;;;;;18.00;14.33;;;6.30;99.90;;;;;;5070960;28;20264;-65
2023/02/12 05:36:17;;;;;;;19.70;15.00;;;6.30;99.90;;;;;;5068300;28;20770;-65
2023/02/12 05:39:23;;;;;;;20.17;15.57;;;6.30;99.90;;;;;;5075093;28;20194;-65
2023/02/12 05:42:30;;;;;;;21.37;15.60;;;6.30;99.90;;;;;;5068812;28;20234;-65
2023/02/12 05:45:37;;;;;;;24.10;15.13;;;6.30;99.90;;;;;;5074297;28;20195;-65
2023/02/12 05:48:42;;;;;;;20.30;14.33;;;6.20;99.90;;;;;;5070764;28;20222;-65
2023/02/12 05:51:48;;;;;;;19.03;15.43;;;6.20;99.90;;;;;;5071851;28;20700;-65
2023/02/12 05:54:54;;;;;;;19.70;14.80;;;6.20;99.90;;;;;;5074130;28;20215;-65
2023/02/12 05:58:02;;;;;;;23.83;15.77;;;6.10;99.90;;;;;;5064064;28;20242;-65
2023/02/12 06:01:13;;;;;;;24.20;16.40;;;6.10;99.90;;;;;;5074943;28;20697;-65
2023/02/12 06:04:22;;;;;;;23.40;16.40;;;6.10;99.90;;;;;;5066548;28;20235;-65
2023/02/12 06:07:28;;;;;;;23.23;15.93;;;6.10;99.90;;;;;;5063318;28;20245;-65
2023/02/12 06:10:34;;;;;;;24.50;16.73;;;6.10;99.90;;;;;;5078048;28;20268;-65
2023/02/12 06:13:41;;;;;;;21.37;15.70;;;6.10;99.90;;;;;;5071491;28;20349;-65
2023/02/12 06:16:49;;;;;;;24.27;16.60;;;6.00;99.90;;;;;;5070295;28;20260;-65
2023/02/12 06:19:54;;;;;;;21.30;16.03;;;6.00;99.90;;;;;;5068966;28;20235;-65
2023/02/12 06:23:00;;;;;;;23.33;17.10;;;6.00;99.90;;;;;;5072807;28;20199;-65
2023/02/12 06:26:06;;;;;;;25.63;17.23;;;6.00;99.90;;;;;;5070152;28;20744;-66
2023/02/12 06:29:13;;;;;;;23.53;17.47;;;6.00;99.90;;;;;;5069009;28;20217;-65
2023/02/12 06:32:19;;;;;;;27.23;17.80;;;6.00;99.90;;;;;;5063799;28;20223;-65
2023/02/12 06:35:25;;;;;;;25.53;16.83;;;6.10;99.90;;;;;;5069613;28;20265;-65
2023/02/12 06:38:31;;;;;;;25.67;17.50;;;6.00;99.90;;;;;;5076639;28;20233;-65
2023/02/12 06:41:37;;;;;;;24.43;17.60;;;6.00;99.90;;;;;;5060368;28;20759;-65
2023/02/12 06:44:45;;;;;;;23.20;16.73;;;6.00;99.90;;;;;;5072493;28;20234;-65
2023/02/12 06:47:52;;;;;;;21.53;15.97;;;5.90;99.90;;;;;;5061520;28;20300;-65
2023/02/12 06:51:04;;;;;;;24.03;17.50;;;5.90;99.90;;;;;;5060918;28;20284;-65
2023/02/12 06:54:14;;;;;;;24.97;18.13;;;5.90;99.90;;;;;;5065035;28;20251;-65
2023/02/12 06:57:20;;;;;;;26.63;18.77;;;5.90;99.90;;;;;;5066098;28;20612;-65
2023/02/12 07:00:27;;;;;;;31.47;19.57;;;5.90;99.90;;;;;;5073921;28;20272;-66
2023/02/12 07:03:33;;;;;;;26.57;18.33;;;5.90;99.90;;;;;;5065273;28;20775;-66
2023/02/12 07:06:39;;;;;;;29.90;19.03;;;5.90;99.90;;;;;;5070781;28;20295;-65
2023/02/12 07:09:45;;;;;;;28.53;19.50;;;5.90;99.90;;;;;;5065097;28;20238;-65
2023/02/12 07:12:51;;;;;;;30.20;19.93;;;5.90;99.90;;;;;;5066467;28;20227;-65
2023/02/12 07:15:58;;;;;;;27.50;19.07;;;5.90;99.90;;;;;;5070130;28;20219;-65
2023/02/12 07:19:04;;;;;;;29.40;19.57;;;5.90;99.90;;;;;;5066848;28;20273;-65
2023/02/12 07:22:10;;;;;;;33.33;20.93;;;5.90;99.90;;;;;;5060972;28;20974;-65
2023/02/12 07:25:16;;;;;;;26.70;18.97;;;5.90;99.90;;;;;;5069627;28;20240;-65
2023/02/12 07:28:21;;;;;;;32.87;20.13;;;5.90;99.90;;;;;;5067309;28;20234;-65
2023/02/12 07:31:29;;;;;;;31.13;19.97;;;5.90;99.90;;;;;;5058834;28;20237;-65
2023/02/12 07:34:35;;;;;;;30.93;19.03;;;5.80;99.90;;;;;;5066710;28;20693;-65
2023/02/12 07:37:41;;;;;;;27.60;18.70;;;5.80;99.90;;;;;;5071603;28;20219;-65
2023/02/12 07:40:47;;;;;;;29.93;19.20;;;5.80;99.90;;;;;;5064345;28;20195;-65
2023/02/12 07:43:55;;;;;;;30.93;18.33;;;5.80;99.90;;;;;;5060600;28;20218;-66
2023/02/12 07:47:04;;;;;;;34.07;21.40;;;5.90;99.90;;;;;;5066324;28;20217;-65
2023/02/12 07:50:10;;;;;;;28.63;19.17;;;5.90;99.90;;;;;;5068135;28;20260;-65
2023/02/12 07:53:16;;;;;;;32.73;20.13;;;5.90;99.90;;;;;;5062137;28;20775;-65
2023/02/12 07:56:24;;;;;;;29.67;19.70;;;6.00;99.90;;;;;;5068469;28;20234;-65
2023/02/12 07:59:31;;;;;;;33.40;21.20;;;6.00;99.90;;;;;;5065454;28;20235;-65
2023/02/12 08:02:38;;;;;;;35.80;23.10;;;6.00;99.90;;;;;;5061445;28;20881;-65
2023/02/12 08:05:44;;;;;;;31.87;20.97;;;6.10;99.90;;;;;;5067194;28;20245;-65
2023/02/12 08:08:51;;;;;;;36.73;23.17;;;6.10;99.90;;;;;;5066614;28;20246;-65
2023/02/12 08:11:58;;;;;;;35.97;22.70;;;6.10;99.90;;;;;;5063524;28;20577;-65
2023/02/12 08:15:04;;;;;;;35.63;21.70;;;6.20;99.90;;;;;;5063925;28;20221;-65
2023/02/12 08:18:11;;;;;;;35.40;22.30;;;6.20;99.90;;;;;;5067097;28;20272;-65
2023/02/12 08:21:18;;;;;;;42.00;24.37;;;6.30;99.90;;;;;;5062483;28;20242;-65
2023/02/12 08:24:25;;;;;;;39.13;25.53;;;6.40;99.90;;;;;;5060046;28;20268;-65
2023/02/12 08:27:31;;;;;;;43.13;26.17;;;6.40;99.90;;;;;;5066387;28;20720;-65
2023/02/12 08:30:37;;;;;;;38.97;24.80;;;6.50;99.90;;;;;;5069957;28;20227;-65
2023/02/12 08:33:46;;;;;;;40.50;23.57;;;6.50;99.90;;;;;;5064439;28;20211;-65
2023/02/12 08:36:53;;;;;;;39.63;24.10;;;6.60;99.90;;;;;;5067687;28;20226;-65
2023/02/12 08:39:59;;;;;;;36.50;23.30;;;6.70;99.90;;;;;;5065634;28;20223;-65
2023/02/12 08:43:05;;;;;;;44.77;26.67;;;6.70;99.90;;;;;;5061860;28;20218;-65
2023/02/12 08:46:13;;;;;;;40.40;25.50;;;6.80;99.90;;;;;;5060841;28;20324;-65
2023/02/12 08:49:22;;;;;;;41.57;25.23;;;6.90;99.90;;;;;;5057644;28;20234;-65
2023/02/12 08:52:28;;;;;;;45.60;27.40;;;6.90;99.90;;;;;;5057448;28;21012;-65
2023/02/12 08:55:33;;;;;;;46.80;27.17;;;7.00;99.90;;;;;;5067799;28;20195;-65
2023/02/12 08:58:39;;;;;;;45.27;27.57;;;7.10;99.90;;;;;;5060445;28;20647;-65
2023/02/12 09:01:45;;;;;;;40.67;26.47;;;7.20;99.90;;;;;;5063661;28;20704;-65
2023/02/12 09:04:52;;;;;;;38.67;25.23;;;7.30;99.90;;;;;;5066188;28;20202;-65
2023/02/12 09:07:58;;;;;;;34.10;23.37;;;7.40;99.90;;;;;;5067661;28;20246;-63
2023/02/12 09:11:05;;;;;;;35.83;23.37;;;7.50;99.90;;;;;;5065683;28;20257;-65
2023/02/12 09:14:13;;;;;;;42.10;24.47;;;7.50;99.90;;;;;;5066515;28;20292;-66
2023/02/12 09:17:20;;;;;;;40.53;25.80;;;7.60;99.90;;;;;;5052310;28;20481;-65
2023/02/12 09:20:27;;;;;;;38.60;24.80;;;7.80;99.90;;;;;;5069966;28;20218;-65
2023/02/12 09:23:33;;;;;;;36.47;23.47;;;7.80;99.90;;;;;;5062012;28;20273;-65
2023/02/12 09:26:40;;;;;;;39.40;25.20;;;7.90;99.90;;;;;;5070169;28;20257;-65
2023/02/12 09:29:46;;;;;;;42.07;25.60;;;8.00;99.90;;;;;;5066842;28;20191;-65
2023/02/12 09:32:51;;;;;;;38.63;25.23;;;8.10;99.90;;;;;;5061111;28;20254;-65
2023/02/12 09:36:03;;;;;;;42.70;25.60;;;8.20;99.90;;;;;;5062550;28;20263;-65
2023/02/12 09:39:09;;;;;;;36.83;24.23;;;8.20;99.90;;;;;;5064317;28;20265;-66
2023/02/12 09:42:37;;;;;;;33.20;22.93;;;8.30;99.90;;;;;;5063854;28;20251;-65
2023/02/12 09:45:47;;;;;;;35.60;23.70;;;8.40;99.90;;;;;;5061141;28;20296;-65
2023/02/12 09:49:08;;;;;;;39.60;23.97;;;8.50;99.90;;;;;;5054487;28;20871;-65
2023/02/12 09:52:18;;;;;;;35.37;23.63;;;8.60;99.90;;;;;;5058167;28;20260;-66
2023/02/12 09:55:27;;;;;;;33.17;21.83;;;8.70;99.90;;;;;;5063969;28;20875;-66
2023/02/12 09:58:38;;;;;;;32.33;22.67;;;8.70;99.90;;;;;;5062407;28;20327;-65
2023/02/12 10:01:44;;;;;;;35.60;23.37;;;8.80;99.90;;;;;;5068425;28;20245;-65
2023/02/12 10:04:52;;;;;;;33.23;21.57;;;8.80;99.90;;;;;;5059742;28;20732;-65
2023/02/12 10:08:29;;;;;;;30.93;21.20;;;8.90;99.90;;;;;;5062226;28;20216;-65
2023/02/12 10:11:51;;;;;;;33.47;24.00;;;8.90;99.90;;;;;;5060045;28;20221;-65
2023/02/12 10:15:16;;;;;;;31.83;21.73;;;9.00;99.90;;;;;;5068546;28;20223;-66
2023/02/12 10:18:39;;;;;;;34.83;23.60;;;9.00;99.90;;;;;;5067255;28;20230;-65
2023/02/12 10:21:57;;;;;;;34.87;24.63;;;9.10;99.90;;;;;;5065290;28;20345;-65
2023/02/12 10:25:18;;;;;;;35.83;24.03;;;9.10;99.90;;;;;;5063609;28;20249;-66
2023/02/12 10:28:27;;;;;;;32.87;22.60;;;9.10;99.90;;;;;;5055883;28;20223;-65
2023/02/12 10:31:36;;;;;;;30.40;20.63;;;9.00;99.90;;;;;;5064504;28;20967;-65
2023/02/12 10:34:43;;;;;;;36.33;23.37;;;9.10;99.90;;;;;;5064095;28;20242;-65
2023/02/12 10:37:55;;;;;;;31.50;21.40;;;9.20;99.90;;;;;;5057138;28;20311;-66
2023/02/12 10:41:02;;;;;;;34.83;21.60;;;9.20;99.90;;;;;;5053810;28;20268;-65
2023/02/12 10:44:10;;;;;;;34.67;23.03;;;9.10;99.90;;;;;;5064273;28;20250;-65
2023/02/12 10:47:20;;;;;;;38.60;23.13;;;9.00;99.90;;;;;;5055663;28;20263;-65
2023/02/12 10:50:39;;;;;;;36.40;22.80;;;9.00;99.90;;;;;;5067927;28;20245;-65
2023/02/12 10:53:46;;;;;;;34.90;23.23;;;9.10;99.90;;;;;;5056436;28;20227;-66
2023/02/12 10:56:52;;;;;;;34.77;23.47;;;9.20;99.90;;;;;;5067216;28;20220;-65
2023/02/12 11:00:16;;;;;;;35.57;22.67;;;9.40;99.90;;;;;;5069355;28;20968;-65
2023/02/12 11:03:23;;;;;;;32.63;22.30;;;9.40;99.90;;;;;;5061219;28;20312;-65
2023/02/12 11:06:30;;;;;;;32.50;22.07;;;9.50;99.90;;;;;;5061952;28;20273;-65
2023/02/12 11:09:44;;;;;;;34.33;21.77;;;9.60;99.90;;;;;;5064281;28;20243;-65
2023/02/12 11:12:51;;;;;;;34.20;21.00;;;9.70;99.90;;;;;;5061845;28;20231;-65
2023/02/12 11:15:59;;;;;;;31.57;21.20;;;9.70;99.90;;;;;;5062265;28;20230;-65
2023/02/12 11:19:08;;;;;;;31.03;20.83;;;9.70;99.90;;;;;;5069931;28;20227;-65
2023/02/12 11:22:17;;;;;;;31.83;21.27;;;9.70;99.90;;;;;;5065054;28;20238;-65
2023/02/12 11:25:25;;;;;;;33.57;21.30;;;9.70;99.90;;;;;;5066853;28;20296;-65
2023/02/12 11:28:34;;;;;;;32.30;20.57;;;9.70;99.90;;;;;;5066367;28;20226;-65
2023/02/12 11:31:40;;;;;;;31.93;20.77;;;9.70;99.90;;;;;;5063837;28;20258;-65
2023/02/12 11:35:05;;;;;;;32.13;20.67;;;9.50;99.90;;;;;;5066807;28;20250;-65
2023/02/12 11:38:22;;;;;;;29.10;19.57;;;9.50;99.90;;;;;;5064096;28;20247;-65
2023/02/12 11:41:35;;;;;;;27.27;18.97;;;9.50;99.90;;;;;;5064597;28;20239;-65
2023/02/12 11:44:48;;;;;;;30.30;19.83;;;9.60;99.90;;;;;;5064837;28;20268;-65
2023/02/12 11:47:53;;;;;;;26.57;18.40;;;9.60;99.90;;;;;;5065735;28;20277;-65
2023/02/12 11:51:03;;;;;;;28.67;18.63;;;9.70;99.90;;;;;;5062380;28;20215;-65
2023/02/12 11:54:20;;;;;;;27.50;18.63;;;9.70;99.90;;;;;;5069633;28;20289;-65
2023/02/12 11:57:37;;;;;;;28.13;18.00;;;9.70;99.90;;;;;;5064251;28;20608;-65
2023/02/12 12:00:51;;;;;;;25.77;17.97;;;9.80;99.90;;;;;;5062106;28;20264;-65
2023/02/12 12:04:03;;;;;;;24.33;16.57;;;9.80;99.90;;;;;;5055235;28;20612;-65
2023/02/12 12:07:16;;;;;;;29.43;18.43;;;9.80;99.90;;;;;;5065698;28;20642;-65
2023/02/12 12:10:33;;;;;;;32.67;18.57;;;9.80;99.90;;;;;;5079654;28;20260;-65
2023/02/12 12:13:46;;;;;;;28.10;18.03;;;9.80;99.90;;;;;;5060762;28;20266;-65
2023/02/12 12:20:28;;;;;;;29.30;17.87;;;9.80;99.90;;;;;;5063145;28;20302;-65
2023/02/12 12:23:40;;;;;;;26.03;18.10;;;9.80;99.90;;;;;;5070076;28;20227;-65
2023/02/12 12:26:59;;;;;;;26.60;18.13;;;9.90;99.90;;;;;;5064609;28;20196;-65
2023/02/12 12:30:11;;;;;;;28.73;18.67;;;9.90;99.90;;;;;;5063743;28;20227;-65
2023/02/12 12:33:26;;;;;;;25.70;17.90;;;9.90;99.90;;;;;;5060612;28;20234;-65
2023/02/12 12:36:58;;;;;;;29.10;18.40;;;10.00;99.90;;;;;;5065394;28;20275;-65
2023/02/12 12:40:19;;;;;;;27.53;18.17;;;10.00;99.90;;;;;;5061504;28;20250;-65
2023/02/12 12:43:35;;;;;;;29.40;18.13;;;10.00;99.90;;;;;;5064815;28;20223;-65
2023/02/12 12:47:03;;;;;;;30.30;19.50;;;10.00;99.90;;;;;;5064935;28;20257;-65
2023/02/12 12:50:44;;;;;;;28.20;18.37;;;9.90;99.90;;;;;;5069641;28;20234;-65
2023/02/12 12:54:05;;;;;;;28.37;18.30;;;9.80;99.90;;;;;;5065148;28;20223;-65
2023/02/12 12:57:23;;;;;;;28.83;18.80;;;9.90;99.90;;;;;;5066475;28;20278;-64
2023/02/12 13:00:55;;;;;;;29.10;17.87;;;10.00;99.90;;;;;;5063967;28;20323;-65
2023/02/12 13:04:34;;;;;;;31.93;19.23;;;10.20;99.90;;;;;;5059326;28;20227;-65
2023/02/12 13:07:52;;;;;;;26.63;18.27;;;10.20;99.90;;;;;;5063136;28;20265;-65
2023/02/12 13:11:05;;;;;;;33.77;19.33;;;10.30;99.90;;;;;;5063164;28;20223;-65
2023/02/12 13:14:27;;;;;;;32.70;19.90;;;10.40;99.90;;;;;;5065709;28;20243;-65
2023/02/12 13:17:44;;;;;;;35.30;19.83;;;10.30;99.90;;;;;;5063624;28;20255;-65
2023/02/12 13:20:59;;;;;;;27.23;18.37;;;10.30;99.90;;;;;;5053920;28;20230;-65
2023/02/12 13:24:17;;;;;;;31.50;18.83;;;10.20;99.90;;;;;;5065945;28;20307;-65
2023/02/12 13:27:26;;;;;;;29.77;18.63;;;9.90;99.90;;;;;;5071887;28;20223;-65
2023/02/12 13:30:38;;;;;;;29.07;19.00;;;9.90;99.90;;;;;;5056661;28;20341;-65
2023/02/12 13:33:47;;;;;;;27.20;18.17;;;10.00;99.90;;;;;;5058999;28;20226;-65
2023/02/12 13:36:53;;;;;;;33.20;20.07;;;10.10;99.90;;;;;;5078453;28;20225;-65
2023/02/12 13:40:04;;;;;;;34.73;20.70;;;10.20;99.90;;;;;;5069419;28;20230;-65
2023/02/12 13:43:24;;;;;;;33.67;19.47;;;10.20;99.90;;;;;;5066202;28;20298;-65
2023/02/12 13:46:38;;;;;;;29.27;17.50;;;10.10;99.90;;;;;;5062716;28;20249;-65
2023/02/12 13:49:51;;;;;;;26.17;16.67;;;10.10;99.90;;;;;;5061298;28;20747;-65
2023/02/12 13:53:02;;;;;;;27.97;16.63;;;10.00;99.90;;;;;;5074811;28;20926;-65
2023/02/12 13:56:21;;;;;;;28.63;15.90;;;9.90;99.90;;;;;;5068170;28;20582;-65
2023/02/12 13:59:47;;;;;;;29.07;16.73;;;9.90;99.90;;;;;;5069231;28;20227;-65
2023/02/12 14:02:53;;;;;;;26.70;16.23;;;9.90;99.90;;;;;;5061995;28;20225;-65
2023/02/12 14:06:15;;;;;;;24.00;15.60;;;9.90;99.90;;;;;;5067743;28;20272;-65
2023/02/12 14:09:26;;;;;;;29.20;17.33;;;10.00;99.90;;;;;;5064324;28;20230;-65
2023/02/12 14:12:37;;;;;;;29.77;17.53;;;9.90;99.90;;;;;;5064000;28;20262;-65
2023/02/12 14:15:50;;;;;;;29.20;17.63;;;9.90;99.90;;;;;;5059121;28;20381;-65
2023/02/12 14:19:30;;;;;;;31.47;17.23;;;9.90;99.90;;;;;;5064690;28;20215;-65
2023/02/12 14:22:57;;;;;;;28.00;16.67;;;9.80;99.90;;;;;;5069439;28;20243;-65
2023/02/12 14:26:07;;;;;;;30.97;17.00;;;9.70;99.90;;;;;;5069282;28;20227;-65
2023/02/12 14:29:20;;;;;;;28.07;16.07;;;9.70;99.90;;;;;;5067925;28;20344;-65
2023/02/12 14:33:08;;;;;;;25.33;15.83;;;9.70;99.90;;;;;;5068099;28;20203;-65
2023/02/12 14:36:39;;;;;;;31.20;15.83;;;9.60;99.90;;;;;;5067779;28;20250;-65
2023/02/12 14:39:45;;;;;;;25.37;15.70;;;9.60;99.90;;;;;;5062137;28;20231;-65
2023/02/12 14:42:56;;;;;;;24.20;13.73;;;9.70;99.90;;;;;;5070168;28;20791;-65
2023/02/12 14:46:35;;;;;;;26.70;15.37;;;9.70;99.90;;;;;;5054968;28;20746;-65
2023/02/12 14:49:47;;;;;;;21.43;13.70;;;9.70;99.90;;;;;;5066111;28;20219;-65
2023/02/12 14:52:59;;;;;;;26.37;15.30;;;9.70;99.90;;;;;;5060242;28;20545;-65
2023/02/12 14:56:08;;;;;;;26.73;15.93;;;9.50;99.90;;;;;;5068099;28;20269;-65
2023/02/12 14:59:17;;;;;;;29.80;16.23;;;9.50;99.90;;;;;;5066267;28;20290;-65
2023/02/12 15:02:26;;;;;;;25.10;16.30;;;9.60;99.90;;;;;;5070237;28;20231;-65
2023/02/12 15:05:39;;;;;;;27.10;15.77;;;9.60;99.90;;;;;;5067024;28;20734;-65
2023/02/12 15:08:51;;;;;;;28.30;15.40;;;9.60;99.90;;;;;;5066166;28;20268;-64
2023/02/12 15:12:03;;;;;;;27.13;16.40;;;9.60;99.90;;;;;;5069426;28;20265;-65
2023/02/12 15:15:15;;;;;;;27.60;15.80;;;9.50;99.90;;;;;;5066388;28;20233;-65
2023/02/12 15:18:29;;;;;;;29.07;16.53;;;9.50;99.90;;;;;;5071620;28;20313;-65
2023/02/12 15:21:38;;;;;;;26.37;16.10;;;9.50;99.90;;;;;;5071344;28;20242;-65
2023/02/12 15:24:45;;;;;;;29.10;16.17;;;9.40;99.90;;;;;;5070601;28;20924;-65
2023/02/12 15:27:55;;;;;;;32.07;18.63;;;9.30;99.90;;;;;;5066912;28;20274;-64
2023/02/12 15:31:02;;;;;;;31.83;17.87;;;9.30;99.90;;;;;;5070019;28;20219;-66
2023/02/12 15:34:20;;;;;;;27.00;16.83;;;9.30;99.90;;;;;;5071842;28;20700;-65
2023/02/12 15:37:30;;;;;;;33.13;18.27;;;9.20;99.90;;;;;;5069817;28;20570;-65
2023/02/12 15:40:37;;;;;;;29.53;16.83;;;9.20;99.90;;;;;;5070246;28;20203;-66
2023/02/12 15:43:42;;;;;;;32.90;17.80;;;9.10;99.90;;;;;;5070527;28;20237;-66
2023/02/12 15:47:01;;;;;;;32.43;18.30;;;9.10;99.90;;;;;;5069613;28;20251;-65
2023/02/12 15:50:12;;;;;;;28.17;17.07;;;9.10;99.90;;;;;;5061946;28;20246;-65
2023/02/12 15:53:22;;;;;;;30.70;17.60;;;9.10;99.90;;;;;;5066132;28;20243;-65
2023/02/12 15:56:28;;;;;;;30.50;16.77;;;9.10;99.90;;;;;;5071987;28;20223;-66
2023/02/12 15:59:34;;;;;;;31.00;17.07;;;9.10;99.90;;;;;;5069244;28;20570;-65
2023/02/12 16:02:39;;;;;;;30.73;17.13;;;9.00;99.90;;;;;;5073380;28;20258;-65
2023/02/12 16:05:46;;;;;;;32.70;18.13;;;9.00;99.90;;;;;;5067557;28;20261;-65
2023/02/12 16:08:58;;;;;;;31.33;18.63;;;9.00;99.90;;;;;;5074554;28;20272;-65
2023/02/12 16:12:09;;;;;;;34.33;19.63;;;8.90;99.90;;;;;;5067711;28;20274;-65
2023/02/12 16:15:26;;;;;;;35.97;19.07;;;8.90;99.90;;;;;;5062994;28;20252;-65
2023/02/12 16:18:31;;;;;;;32.50;18.07;;;8.90;99.90;;;;;;5059354;28;20223;-64
2023/02/12 16:21:39;;;;;;;33.47;19.40;;;8.80;99.90;;;;;;5063358;28;20254;-64
2023/02/12 16:24:49;;;;;;;35.33;19.30;;;8.70;99.90;;;;;;5063202;28;20285;-64